createdAt,value
2023-07-18T00:01:46.042Z,100486.66
2023-07-18T00:04:13.363Z,100485.13
2023-07-18T00:06:43.248Z,100490.31
2023-07-18T00:09:10.443Z,100494.56
2023-07-18T00:11:37.969Z,100508.06
2023-07-18T00:14:05.037Z,100518.41
2023-07-18T00:16:32.209Z,100514.00
2023-07-18T00:19:00.593Z,100508.44
2023-07-18T00:21:28.681Z,100478.88
2023-07-18T00:23:55.868Z,100490.41
2023-07-18T00:26:25.564Z,100505.06
2023-07-18T00:28:54.711Z,100508.44
2023-07-18T00:31:22.850Z,100523.03
2023-07-18T00:33:50.222Z,100521.78
2023-07-18T00:36:18.231Z,100513.13
2023-07-18T00:38:45.447Z,100505.50
2023-07-18T00:41:13.287Z,100506.56
2023-07-18T00:43:40.464Z,100488.25
2023-07-18T00:46:10.677Z,100510.66
2023-07-18T00:48:38.332Z,100505.66
2023-07-18T00:51:06.037Z,100508.91
2023-07-18T00:53:33.631Z,100511.22
2023-07-18T00:56:04.474Z,100509.31
2023-07-18T00:58:35.222Z,100515.53
2023-07-18T01:01:04.521Z,100516.47
2023-07-18T01:03:32.663Z,100509.00
2023-07-18T01:05:59.961Z,100500.22
2023-07-18T01:08:27.166Z,100496.94
2023-07-18T01:10:54.606Z,100493.97
2023-07-18T01:13:21.672Z,100504.34
2023-07-18T01:15:50.739Z,100507.72
2023-07-18T01:18:17.905Z,100513.44
2023-07-18T01:20:47.466Z,100531.06
2023-07-18T01:23:15.369Z,100565.50
2023-07-18T01:25:43.846Z,100550.91
2023-07-18T01:28:12.209Z,100537.41
2023-07-18T01:30:39.655Z,100521.94
2023-07-18T01:33:08.183Z,100518.16
2023-07-18T01:35:35.436Z,100524.59
2023-07-18T01:38:02.624Z,100519.50
2023-07-18T01:40:30.005Z,100529.59
2023-07-18T01:42:58.944Z,100537.47
2023-07-18T01:45:29.522Z,100541.94
2023-07-18T01:47:57.883Z,100544.91
2023-07-18T01:50:25.419Z,100539.63
2023-07-18T01:52:52.631Z,100548.94
2023-07-18T01:55:21.318Z,100551.84
2023-07-18T01:57:49.924Z,100558.00
2023-07-18T02:00:20.869Z,100559.44
2023-07-18T02:02:51.165Z,100562.84
2023-07-18T02:05:23.684Z,100563.00
2023-07-18T02:07:51.212Z,100568.50
2023-07-18T02:10:23.009Z,100570.44
2023-07-18T02:12:51.823Z,100588.00
2023-07-18T02:15:21.327Z,100598.03
2023-07-18T02:17:49.249Z,100595.75
2023-07-18T02:20:17.899Z,100594.28
2023-07-18T02:22:46.435Z,100606.59
2023-07-18T02:25:16.672Z,100606.84
2023-07-18T02:27:44.641Z,100598.44
2023-07-18T02:30:13.461Z,100608.91
2023-07-18T02:32:43.261Z,100605.63
2023-07-18T02:35:19.526Z,100613.63
2023-07-18T02:37:47.552Z,100606.09
2023-07-18T02:40:16.997Z,100612.25
2023-07-18T02:42:44.257Z,100614.31
2023-07-18T02:45:11.793Z,100619.97
2023-07-18T02:47:40.162Z,100631.44
2023-07-18T02:50:09.122Z,100629.84
2023-07-18T02:52:37.035Z,100636.88
2023-07-18T02:55:04.764Z,100631.91
2023-07-18T02:57:32.903Z,100637.19
2023-07-18T03:00:00.953Z,100628.69
2023-07-18T03:02:32.612Z,100644.41
2023-07-18T03:05:00.082Z,100619.50
2023-07-18T03:07:27.291Z,100632.53
2023-07-18T03:09:55.273Z,100630.94
2023-07-18T03:12:22.666Z,100627.63
2023-07-18T03:14:51.299Z,100641.63
2023-07-18T03:17:18.384Z,100651.31
2023-07-18T03:19:45.513Z,100630.72
2023-07-18T03:22:12.952Z,100645.47
2023-07-18T03:24:40.423Z,100650.84
2023-07-18T03:27:07.687Z,100648.44
2023-07-18T03:29:34.951Z,100657.03
2023-07-18T03:32:02.494Z,100656.19
2023-07-18T03:34:30.153Z,100671.16
2023-07-18T03:36:57.474Z,100669.50
2023-07-18T03:39:25.019Z,100665.06
2023-07-18T03:41:52.492Z,100668.56
2023-07-18T03:44:19.634Z,100670.19
2023-07-18T03:46:47.020Z,100667.41
2023-07-18T03:49:14.213Z,100676.91
2023-07-18T03:51:41.553Z,100677.72
2023-07-18T03:54:08.782Z,100680.34
2023-07-18T03:56:36.319Z,100684.75
2023-07-18T03:59:03.453Z,100681.38
2023-07-18T04:01:30.586Z,100682.47
2023-07-18T04:03:57.751Z,100686.66
2023-07-18T04:06:25.066Z,100694.47
2023-07-18T04:08:52.243Z,100693.66
2023-07-18T04:11:19.634Z,100699.03
2023-07-18T04:13:47.079Z,100692.84
2023-07-18T04:16:14.313Z,100706.75
2023-07-18T04:18:41.490Z,100704.06
2023-07-18T04:21:08.677Z,100699.59
2023-07-18T04:23:35.874Z,100695.31
2023-07-18T04:26:04.915Z,100701.19
2023-07-18T04:28:35.272Z,100704.59
2023-07-18T04:31:03.298Z,100703.75
2023-07-18T04:33:38.689Z,100697.69
2023-07-18T04:36:07.203Z,100694.13
2023-07-18T04:38:35.797Z,100704.28
2023-07-18T04:41:04.303Z,100701.50
2023-07-18T04:43:31.544Z,100708.38
2023-07-18T04:45:58.973Z,100704.38
2023-07-18T04:48:26.829Z,100712.22
2023-07-18T04:51:03.275Z,100718.41
2023-07-18T04:53:32.006Z,100721.91
2023-07-18T04:55:59.431Z,100723.56
2023-07-18T04:58:27.862Z,100713.28
2023-07-18T05:00:58.584Z,100730.34
2023-07-18T05:03:26.615Z,100730.28
2023-07-18T05:05:54.639Z,100722.41
2023-07-18T05:08:22.527Z,100718.03
2023-07-18T05:10:51.250Z,100719.56
2023-07-18T05:13:18.640Z,100731.66
2023-07-18T05:15:46.233Z,100731.66
2023-07-18T05:18:13.513Z,100734.84
2023-07-18T05:20:40.749Z,100739.25
2023-07-18T05:23:08.021Z,100735.06
2023-07-18T05:25:36.310Z,100729.03
2023-07-18T05:28:05.191Z,100739.38
2023-07-18T05:30:32.467Z,100738.28
2023-07-18T05:32:59.787Z,100739.09
2023-07-18T05:35:26.964Z,100738.09
2023-07-18T05:37:54.038Z,100745.16
2023-07-18T05:40:22.635Z,100748.47
2023-07-18T05:42:50.352Z,100749.94
2023-07-18T05:45:17.828Z,100755.06
2023-07-18T05:47:45.245Z,100751.56
2023-07-18T05:50:13.248Z,100754.88
2023-07-18T05:52:40.592Z,100756.56
2023-07-18T05:55:08.979Z,100754.75
2023-07-18T05:57:36.269Z,100752.19
2023-07-18T06:00:07.397Z,100751.09
2023-07-18T06:02:39.664Z,100761.72
2023-07-18T06:05:08.407Z,100757.16
2023-07-18T06:07:35.494Z,100762.97
2023-07-18T06:10:03.035Z,100760.19
2023-07-18T06:12:30.283Z,100753.97
2023-07-18T06:14:57.514Z,100760.56
2023-07-18T06:17:24.781Z,100774.91
2023-07-18T06:19:51.987Z,100775.34
2023-07-18T06:22:19.650Z,100773.22
2023-07-18T06:24:47.588Z,100770.34
2023-07-18T06:27:14.807Z,100775.78
2023-07-18T06:29:41.910Z,100766.22
2023-07-18T06:32:09.906Z,100769.75
2023-07-18T06:34:42.590Z,100771.44
2023-07-18T06:37:11.375Z,100757.09
2023-07-18T06:39:39.447Z,100773.78
2023-07-18T06:42:07.807Z,100770.75
2023-07-18T06:44:35.060Z,100767.56
2023-07-18T06:47:02.553Z,100770.44
2023-07-18T06:49:29.683Z,100766.44
2023-07-18T06:51:56.937Z,100769.50
2023-07-18T06:54:24.140Z,100778.66
2023-07-18T06:56:51.302Z,100780.41
2023-07-18T06:59:18.514Z,100777.69
2023-07-18T07:01:45.718Z,100770.75
2023-07-18T07:04:13.016Z,100780.88
2023-07-18T07:06:43.413Z,100770.94
2023-07-18T07:09:14.614Z,100769.50
2023-07-18T07:11:43.285Z,100774.38
2023-07-18T07:14:10.482Z,100775.47
2023-07-18T07:16:37.683Z,100771.13
2023-07-18T07:19:07.005Z,100773.22
2023-07-18T07:21:34.131Z,100772.13
2023-07-18T07:24:02.150Z,100771.31
2023-07-18T07:26:29.446Z,100770.34
2023-07-18T07:28:56.709Z,100777.66
2023-07-18T07:31:24.696Z,100748.38
2023-07-18T07:33:52.376Z,100767.78
2023-07-18T07:36:20.102Z,100764.06
2023-07-18T07:38:47.564Z,100764.00
2023-07-18T07:41:15.036Z,100768.63
2023-07-18T07:43:42.232Z,100767.72
2023-07-18T07:46:09.462Z,100757.97
2023-07-18T07:48:36.631Z,100764.03
2023-07-18T07:51:07.553Z,100761.81
2023-07-18T07:53:34.868Z,100761.34
2023-07-18T07:56:01.997Z,100755.22
2023-07-18T07:58:29.157Z,100767.13
2023-07-18T08:00:56.464Z,100763.38
2023-07-18T08:03:23.656Z,100753.94
2023-07-18T08:05:50.930Z,100746.00
2023-07-18T08:08:19.268Z,100748.28
2023-07-18T08:10:46.510Z,100742.59
2023-07-18T08:13:15.891Z,100749.56
2023-07-18T08:15:43.140Z,100750.63
2023-07-18T08:18:10.354Z,100743.75
2023-07-18T08:20:38.294Z,100757.06
2023-07-18T08:23:05.543Z,100754.88
2023-07-18T08:25:32.865Z,100752.78
2023-07-18T08:28:00.118Z,100743.69
2023-07-18T08:30:27.188Z,100746.69
2023-07-18T08:32:54.378Z,100748.22
2023-07-18T08:35:21.644Z,100744.13
2023-07-18T08:37:48.975Z,100741.41
2023-07-18T08:40:16.401Z,100748.31
2023-07-18T08:42:44.561Z,100735.22
2023-07-18T08:45:15.353Z,100724.41
2023-07-18T08:47:45.065Z,100720.63
2023-07-18T08:50:12.635Z,100733.75
2023-07-18T08:52:40.996Z,100731.44
2023-07-18T08:55:09.435Z,100730.19
2023-07-18T08:57:37.336Z,100726.81
2023-07-18T09:00:06.157Z,100710.88
2023-07-18T09:02:33.532Z,100721.69
2023-07-18T09:05:00.874Z,100709.16
2023-07-18T09:07:28.825Z,100722.56
2023-07-18T09:09:59.610Z,100715.75
2023-07-18T09:12:28.041Z,100711.09
2023-07-18T09:14:58.526Z,100719.97
2023-07-18T09:17:26.025Z,100703.53
2023-07-18T09:19:54.097Z,100715.09
2023-07-18T09:22:21.214Z,100710.00
2023-07-18T09:24:49.421Z,100705.34
2023-07-18T09:27:19.590Z,100708.44
2023-07-18T09:29:50.479Z,100704.53
2023-07-18T09:32:19.427Z,100704.56
2023-07-18T09:34:57.611Z,100695.03
2023-07-18T09:37:25.097Z,100692.78
2023-07-18T09:39:52.422Z,100682.47
2023-07-18T09:42:21.036Z,100689.06
2023-07-18T09:44:52.642Z,100693.94
2023-07-18T09:47:21.182Z,100687.91
2023-07-18T09:49:48.705Z,100673.84
2023-07-18T09:52:19.632Z,100672.69
2023-07-18T09:54:48.252Z,100682.94
2023-07-18T09:57:17.521Z,100685.06
2023-07-18T09:59:46.883Z,100673.66
2023-07-18T10:02:14.123Z,100675.78
2023-07-18T10:04:41.355Z,100690.56
2023-07-18T10:07:12.544Z,100684.28
2023-07-18T10:09:40.563Z,100680.47
2023-07-18T10:12:08.454Z,100673.94
2023-07-18T10:14:52.099Z,100680.97
2023-07-18T10:17:35.562Z,100685.03
2023-07-18T10:20:13.128Z,100673.13
2023-07-18T10:22:51.687Z,100669.75
2023-07-18T10:25:19.833Z,100676.75
2023-07-18T10:27:50.158Z,100674.38
2023-07-18T10:30:20.030Z,100663.56
2023-07-18T10:32:58.411Z,100659.88
2023-07-18T10:35:28.093Z,100666.78
2023-07-18T10:37:57.652Z,100669.47
2023-07-18T10:40:53.914Z,100639.09
2023-07-18T10:43:21.819Z,100624.41
2023-07-18T10:45:49.060Z,100648.09
2023-07-18T10:48:18.453Z,100648.13
2023-07-18T10:50:47.517Z,100649.81
2023-07-18T10:53:16.869Z,100655.13
2023-07-18T10:55:47.287Z,100651.97
2023-07-18T10:58:22.060Z,100646.81
2023-07-18T11:00:51.192Z,100646.56
2023-07-18T11:03:28.724Z,100641.78
2023-07-18T11:05:56.079Z,100630.59
2023-07-18T11:08:27.633Z,100637.28
2023-07-18T11:11:04.652Z,100622.00
2023-07-18T11:13:34.298Z,100632.53
2023-07-18T11:16:09.006Z,100633.88
2023-07-18T11:18:42.343Z,100634.94
2023-07-18T11:21:10.914Z,100619.75
2023-07-18T11:23:40.114Z,100628.38
2023-07-18T11:26:18.164Z,100630.47
2023-07-18T11:28:50.114Z,100629.44
2023-07-18T11:31:43.836Z,100621.81
2023-07-18T11:34:11.261Z,100623.47
2023-07-18T11:36:41.052Z,100617.53
2023-07-18T11:39:32.016Z,100616.03
2023-07-18T11:42:10.156Z,100611.78
2023-07-18T11:44:43.542Z,100614.97
2023-07-18T11:47:14.563Z,100612.09
2023-07-18T11:49:44.679Z,100600.84
2023-07-18T11:52:12.482Z,100607.38
2023-07-18T11:54:39.994Z,100616.69
2023-07-18T11:57:07.754Z,100620.09
2023-07-18T11:59:35.361Z,100623.56
2023-07-18T12:02:02.955Z,100621.94
2023-07-18T12:04:30.608Z,100614.03
2023-07-18T12:06:59.078Z,100608.88
2023-07-18T12:09:26.488Z,100610.34
2023-07-18T12:11:55.671Z,100609.25
2023-07-18T12:14:22.934Z,100610.53
2023-07-18T12:16:50.159Z,100608.84
2023-07-18T12:19:17.542Z,100618.84
2023-07-18T12:21:44.749Z,100611.06
2023-07-18T12:24:12.096Z,100610.75
2023-07-18T12:26:39.273Z,100610.63
2023-07-18T12:29:06.705Z,100604.94
2023-07-18T12:31:35.474Z,100592.97
2023-07-18T12:34:04.185Z,100598.91
2023-07-18T12:36:31.283Z,100592.84
2023-07-18T12:38:58.365Z,100591.00
2023-07-18T12:41:25.551Z,100595.47
2023-07-18T12:43:53.076Z,100584.00
2023-07-18T12:46:26.772Z,100579.41
2023-07-18T12:49:03.646Z,100576.34
2023-07-18T12:51:32.404Z,100588.25
2023-07-18T12:53:59.621Z,100577.25
2023-07-18T12:56:26.914Z,100570.97
2023-07-18T12:58:54.061Z,100581.06
2023-07-18T13:01:21.481Z,100563.84
2023-07-18T13:03:48.636Z,100566.91
2023-07-18T13:06:15.848Z,100559.97
2023-07-18T13:08:43.034Z,100568.00
2023-07-18T13:11:10.280Z,100549.94
2023-07-18T13:13:37.559Z,100572.72
2023-07-18T13:16:05.143Z,100565.53
2023-07-18T13:18:32.345Z,100548.16
2023-07-18T13:21:00.493Z,100561.91
2023-07-18T13:23:27.682Z,100549.19
2023-07-18T13:25:54.732Z,100537.94
2023-07-18T13:28:21.928Z,100531.72
2023-07-18T13:30:49.025Z,100534.66
2023-07-18T13:33:17.536Z,100534.44
2023-07-18T13:35:44.548Z,100515.16
2023-07-18T13:38:11.623Z,100531.34
2023-07-18T13:40:38.860Z,100522.53
2023-07-18T13:43:06.662Z,100517.28
2023-07-18T13:45:34.295Z,100509.97
2023-07-18T13:48:04.796Z,100524.75
2023-07-18T13:50:32.322Z,100532.91
2023-07-18T13:53:00.154Z,100529.75
2023-07-18T13:55:28.417Z,100508.94
2023-07-18T13:57:55.577Z,100521.56
2023-07-18T14:00:22.920Z,100507.47
2023-07-18T14:02:51.034Z,100513.81
2023-07-18T14:05:18.430Z,100512.31
2023-07-18T14:07:45.564Z,100513.59
2023-07-18T14:10:12.922Z,100511.25
2023-07-18T14:12:42.490Z,100504.91
2023-07-18T14:15:12.342Z,100512.69
2023-07-18T14:17:39.642Z,100506.19
2023-07-18T14:20:07.567Z,100511.03
2023-07-18T14:22:35.055Z,100507.66
2023-07-18T14:25:03.601Z,100511.03
2023-07-18T14:27:30.791Z,100500.41
2023-07-18T14:29:58.081Z,100500.41
2023-07-18T14:32:25.472Z,100513.13
2023-07-18T14:34:52.912Z,100507.94
2023-07-18T14:37:20.116Z,100501.25
2023-07-18T14:39:59.524Z,100508.47
2023-07-18T14:42:26.947Z,100507.41
2023-07-18T14:44:54.569Z,100466.34
2023-07-18T14:47:21.926Z,100502.75
2023-07-18T14:49:49.153Z,100495.78
2023-07-18T14:52:17.340Z,100501.06
2023-07-18T14:54:44.873Z,100507.09
2023-07-18T14:57:12.374Z,100505.94
2023-07-18T14:59:39.525Z,100504.22
2023-07-18T15:02:07.063Z,100502.53
2023-07-18T15:04:34.282Z,100497.47
2023-07-18T15:07:01.525Z,100501.06
2023-07-18T15:09:28.736Z,100497.88
2023-07-18T15:11:56.104Z,100493.13
2023-07-18T15:14:23.975Z,100488.16
2023-07-18T15:16:51.304Z,100484.34
2023-07-18T15:19:18.548Z,100470.13
2023-07-18T15:21:45.766Z,100480.53
2023-07-18T15:24:12.909Z,100473.22
2023-07-18T15:26:40.457Z,100452.13
2023-07-18T15:29:07.652Z,100458.94
2023-07-18T15:31:34.882Z,100457.44
2023-07-18T15:34:02.097Z,100451.09
2023-07-18T15:36:29.317Z,100451.47
2023-07-18T15:38:56.410Z,100458.88
2023-07-18T15:41:23.629Z,100453.81
2023-07-18T15:43:50.767Z,100443.63
2023-07-18T15:46:19.427Z,100449.13
2023-07-18T15:48:46.995Z,100450.84
2023-07-18T15:51:14.750Z,100444.41
2023-07-18T15:53:41.873Z,100445.09
2023-07-18T15:56:10.793Z,100413.28
2023-07-18T15:58:38.012Z,100439.84
2023-07-18T16:01:05.317Z,100439.63
2023-07-18T16:03:32.746Z,100441.31
2023-07-18T16:06:00.203Z,100444.59
2023-07-18T16:08:27.678Z,100433.91
2023-07-18T16:10:55.245Z,100429.97
2023-07-18T16:13:22.510Z,100434.09
2023-07-18T16:15:50.019Z,100426.44
2023-07-18T16:18:17.394Z,100421.34
2023-07-18T16:20:44.708Z,100423.25
2023-07-18T16:23:12.097Z,100425.56
2023-07-18T16:25:39.565Z,100425.56
2023-07-18T16:28:06.894Z,100420.28
2023-07-18T16:30:34.760Z,100415.19
2023-07-18T16:33:02.325Z,100417.28
2023-07-18T16:35:29.561Z,100380.00
2023-07-18T16:37:56.736Z,100408.41
2023-07-18T16:40:23.858Z,100406.31
2023-07-18T16:42:51.069Z,100402.16
2023-07-18T16:45:18.691Z,100397.09
2023-07-18T16:47:47.279Z,100396.31
2023-07-18T16:50:15.520Z,100392.97
2023-07-18T16:52:44.954Z,100387.84
2023-07-18T16:55:12.085Z,100377.25
2023-07-18T16:57:40.597Z,100378.50
2023-07-18T17:00:08.340Z,100382.84
2023-07-18T17:02:36.222Z,100376.81
2023-07-18T17:05:03.751Z,100374.69
2023-07-18T17:07:31.013Z,100366.47
2023-07-18T17:09:59.697Z,100363.69
2023-07-18T17:12:27.157Z,100360.13
2023-07-18T17:14:54.406Z,100358.22
2023-07-18T17:17:21.607Z,100365.00
2023-07-18T17:20:05.266Z,100360.53
2023-07-18T17:22:35.235Z,100356.53
2023-07-18T17:25:05.542Z,100350.47
2023-07-18T17:27:36.179Z,100345.06
2023-07-18T17:30:03.504Z,100351.31
2023-07-18T17:32:30.548Z,100336.91
2023-07-18T17:34:57.694Z,100346.75
2023-07-18T17:37:25.290Z,100341.84
2023-07-18T17:39:52.388Z,100339.47
2023-07-18T17:42:19.664Z,100336.50
2023-07-18T17:44:46.793Z,100332.53
2023-07-18T17:47:14.773Z,100338.78
2023-07-18T17:49:42.082Z,100344.50
2023-07-18T17:52:11.852Z,100339.78
2023-07-18T17:54:39.080Z,100329.59
2023-07-18T17:57:06.295Z,100331.28
2023-07-18T17:59:34.160Z,100340.19
2023-07-18T18:02:01.405Z,100325.56
2023-07-18T18:04:28.546Z,100327.03
2023-07-18T18:06:55.666Z,100340.94
2023-07-18T18:09:23.834Z,100343.06
2023-07-18T18:11:52.544Z,100339.88
2023-07-18T18:14:20.002Z,100341.84
2023-07-18T18:16:47.440Z,100340.22
2023-07-18T18:19:14.633Z,100336.16
2023-07-18T18:21:41.876Z,100331.91
2023-07-18T18:24:09.022Z,100327.59
2023-07-18T18:26:37.004Z,100327.69
2023-07-18T18:29:09.120Z,100326.81
2023-07-18T18:31:36.696Z,100327.97
2023-07-18T18:34:03.999Z,100329.09
2023-07-18T18:36:31.607Z,100335.72
2023-07-18T18:38:58.830Z,100344.75
2023-07-18T18:41:25.971Z,100337.03
2023-07-18T18:43:56.171Z,100327.78
2023-07-18T18:46:24.519Z,100330.63
2023-07-18T18:48:51.763Z,100324.03
2023-07-18T18:51:19.227Z,100331.00
2023-07-18T18:53:46.834Z,100327.78
2023-07-18T18:56:14.294Z,100324.78
2023-07-18T18:58:41.591Z,100327.22
2023-07-18T19:01:08.997Z,100331.88
2023-07-18T19:03:40.297Z,100332.94
2023-07-18T19:06:08.094Z,100335.13
2023-07-18T19:08:35.258Z,100323.84
2023-07-18T19:11:12.330Z,100331.41
2023-07-18T19:13:47.229Z,100324.19
2023-07-18T19:16:47.014Z,100322.97
2023-07-18T19:19:30.369Z,100324.00
2023-07-18T19:22:15.098Z,100324.13
2023-07-18T19:25:00.725Z,100330.44
2023-07-18T19:27:38.616Z,100324.81
2023-07-18T19:30:08.153Z,100308.97
2023-07-18T19:32:35.423Z,100314.22
2023-07-18T19:35:04.296Z,100321.75
2023-07-18T19:37:31.661Z,100316.91
2023-07-18T19:39:59.201Z,100314.72
2023-07-18T19:42:26.894Z,100318.91
2023-07-18T19:44:55.392Z,100311.25
2023-07-18T19:47:22.723Z,100305.94
2023-07-18T19:50:11.337Z,100302.84
2023-07-18T19:52:41.270Z,100303.63
2023-07-18T19:55:12.022Z,100300.63
2023-07-18T19:57:41.703Z,100295.53
2023-07-18T20:00:09.916Z,100307.47
2023-07-18T20:02:47.973Z,100319.25
2023-07-18T20:05:22.808Z,100307.00
2023-07-18T20:07:59.032Z,100323.13
2023-07-18T20:10:39.241Z,100314.97
2023-07-18T20:13:12.141Z,100322.88
2023-07-18T20:15:45.941Z,100325.16
2023-07-18T20:18:16.010Z,100329.28
2023-07-18T20:20:45.705Z,100331.56
2023-07-18T20:23:19.597Z,100316.56
2023-07-18T20:26:04.182Z,100328.91
2023-07-18T20:28:36.169Z,100317.09
2023-07-18T20:31:13.477Z,100334.50
2023-07-18T20:33:45.028Z,100331.38
2023-07-18T20:36:12.375Z,100321.19
2023-07-18T20:38:40.782Z,100325.03
2023-07-18T20:41:10.287Z,100331.81
2023-07-18T20:43:48.846Z,100331.31
2023-07-18T20:46:18.438Z,100337.72
2023-07-18T20:48:47.215Z,100337.72
2023-07-18T20:51:20.269Z,100334.47
2023-07-18T20:53:53.846Z,100341.72
2023-07-18T20:56:32.809Z,100335.00
2023-07-18T20:59:04.244Z,100331.72
2023-07-18T21:01:33.609Z,100331.88
2023-07-18T21:04:01.348Z,100321.78
2023-07-18T21:06:34.227Z,100332.59
2023-07-18T21:09:01.534Z,100338.66
2023-07-18T21:11:28.647Z,100335.44
2023-07-18T21:13:55.710Z,100331.41
2023-07-18T21:16:23.316Z,100331.09
2023-07-18T21:18:50.581Z,100332.88
2023-07-18T21:21:18.343Z,100333.03
2023-07-18T21:23:45.956Z,100338.41
2023-07-18T21:26:13.279Z,100324.13
2023-07-18T21:28:53.586Z,100334.09
2023-07-18T21:31:21.599Z,100322.69
2023-07-18T21:33:49.802Z,100328.81
2023-07-18T21:36:16.975Z,100316.88
2023-07-18T21:38:44.118Z,100310.25
2023-07-18T21:41:11.244Z,100321.03
2023-07-18T21:43:38.554Z,100329.81
2023-07-18T21:46:05.771Z,100325.03
2023-07-18T21:48:33.022Z,100331.13
2023-07-18T21:51:00.161Z,100331.88
2023-07-18T21:53:27.710Z,100322.28
2023-07-18T21:55:55.035Z,100324.69
2023-07-18T21:58:22.647Z,100326.50
2023-07-18T22:00:50.185Z,100326.75
2023-07-18T22:03:17.897Z,100325.16
2023-07-18T22:05:45.119Z,100317.44
2023-07-18T22:08:12.282Z,100325.41
2023-07-18T22:10:39.547Z,100299.25
2023-07-18T22:13:07.232Z,100300.56
2023-07-18T22:15:34.531Z,100319.06
2023-07-18T22:18:12.191Z,100314.84
2023-07-18T22:20:47.823Z,100321.22
2023-07-18T22:23:14.985Z,100324.97
2023-07-18T22:25:42.196Z,100290.13
2023-07-18T22:28:09.317Z,100315.06
2023-07-18T22:30:36.623Z,100298.53
2023-07-18T22:33:04.484Z,100314.00
2023-07-18T22:35:31.706Z,100309.84
2023-07-18T22:37:59.284Z,100310.66
2023-07-18T22:40:26.496Z,100302.28
2023-07-18T22:42:53.809Z,100304.97
2023-07-18T22:45:21.095Z,100306.16
2023-07-18T22:47:48.314Z,100263.75
2023-07-18T22:50:15.567Z,100305.09
2023-07-18T22:52:42.725Z,100296.19
2023-07-18T22:55:10.076Z,100299.84
2023-07-18T22:57:37.195Z,100292.34
2023-07-18T23:00:05.359Z,100291.88
2023-07-18T23:02:32.549Z,100294.72
2023-07-18T23:04:59.733Z,100287.88
2023-07-18T23:07:27.701Z,100277.72
2023-07-18T23:09:54.786Z,100280.28
2023-07-18T23:12:22.087Z,100269.94
2023-07-18T23:14:49.245Z,100274.94
2023-07-18T23:17:16.308Z,100281.31
2023-07-18T23:19:43.531Z,100265.81
2023-07-18T23:22:10.668Z,100273.56
2023-07-18T23:24:38.269Z,100278.03
2023-07-18T23:27:05.795Z,100267.81
2023-07-18T23:29:33.123Z,100271.16
2023-07-18T23:32:00.467Z,100266.50
2023-07-18T23:34:27.570Z,100261.69
2023-07-18T23:36:54.702Z,100269.97
2023-07-18T23:39:21.939Z,100257.00
2023-07-18T23:41:49.018Z,100250.84
2023-07-18T23:44:16.886Z,100268.59
2023-07-18T23:46:44.212Z,100256.41
2023-07-18T23:49:11.454Z,100257.66
2023-07-18T23:51:38.624Z,100256.47
2023-07-18T23:54:05.908Z,100258.13
2023-07-18T23:56:33.933Z,100244.44
2023-07-18T23:59:01.160Z,100255.94
